createdAt,value
2018-02-15T00:01:06.044Z,-5.14
2018-02-15T00:03:33.617Z,-5.24
2018-02-15T00:06:01.194Z,-5.09
2018-02-15T00:08:28.826Z,-5.16
2018-02-15T00:10:56.420Z,-5.25
2018-02-15T00:13:24.130Z,-5.29
2018-02-15T00:15:51.853Z,-5.23
2018-02-15T00:18:19.634Z,-5.18
2018-02-15T00:20:47.244Z,-5.16
2018-02-15T00:23:15.669Z,-5.11
2018-02-15T00:25:43.260Z,-5.07
2018-02-15T00:28:10.957Z,-4.98
2018-02-15T00:30:38.557Z,-4.89
2018-02-15T00:33:07.091Z,-4.78
2018-02-15T00:35:35.378Z,-4.67
2018-02-15T00:38:02.995Z,-4.62
2018-02-15T00:40:30.634Z,-4.42
2018-02-15T00:42:58.236Z,-4.52
2018-02-15T00:45:25.957Z,-4.68
2018-02-15T00:47:53.523Z,-4.80
2018-02-15T00:50:22.133Z,-4.94
2018-02-15T00:52:49.728Z,-4.82
2018-02-15T00:55:18.153Z,-4.90
2018-02-15T00:57:45.781Z,-5.01
2018-02-15T01:00:13.919Z,-5.03
2018-02-15T01:02:41.524Z,-5.04
2018-02-15T01:05:10.104Z,-5.05
2018-02-15T01:07:37.800Z,-5.14
2018-02-15T01:10:05.405Z,-5.20
2018-02-15T01:12:32.965Z,-5.29
2018-02-15T01:15:00.536Z,-5.36
2018-02-15T01:17:28.280Z,-5.47
2018-02-15T01:19:55.876Z,-5.49
2018-02-15T01:22:23.455Z,-5.39
2018-02-15T01:24:51.141Z,-5.38
2018-02-15T01:27:18.761Z,-5.39
2018-02-15T01:29:46.327Z,-5.34
2018-02-15T01:32:13.916Z,-5.44
2018-02-15T01:34:41.503Z,-5.49
2018-02-15T01:37:09.921Z,-5.55
2018-02-15T01:39:37.521Z,-5.61
2018-02-15T01:42:05.101Z,-5.58
2018-02-15T01:44:32.750Z,-5.48
2018-02-15T01:47:00.327Z,-5.54
2018-02-15T01:49:28.151Z,-5.54
2018-02-15T01:51:55.827Z,-5.52
2018-02-15T01:54:23.417Z,-5.46
2018-02-15T01:56:51.021Z,-5.40
2018-02-15T01:59:18.608Z,-5.35
2018-02-15T02:01:46.209Z,-5.30
2018-02-15T02:04:13.812Z,-5.33
2018-02-15T02:06:41.386Z,-5.34
2018-02-15T02:09:09.728Z,-5.40
2018-02-15T02:11:37.776Z,-5.36
2018-02-15T02:14:06.212Z,-5.39
2018-02-15T02:16:33.790Z,-5.33
2018-02-15T02:19:01.783Z,-5.32
2018-02-15T02:21:29.520Z,-5.29
2018-02-15T02:23:57.079Z,-5.27
2018-02-15T02:26:25.803Z,-5.27
2018-02-15T02:28:53.377Z,-5.31
2018-02-15T02:31:20.985Z,-5.33
2018-02-15T02:33:48.570Z,-5.35
2018-02-15T02:36:16.151Z,-5.41
2018-02-15T02:38:44.072Z,-5.48
2018-02-15T02:41:11.988Z,-5.51
2018-02-15T02:43:39.558Z,-5.57
2018-02-15T02:46:07.293Z,-5.62
2018-02-15T02:48:34.931Z,-5.66
2018-02-15T02:51:02.540Z,-5.76
2018-02-15T02:53:31.405Z,-5.73
2018-02-15T02:56:00.494Z,-5.77
2018-02-15T02:58:28.049Z,-5.77
2018-02-15T03:00:56.861Z,-5.74
2018-02-15T03:03:24.842Z,-5.78
2018-02-15T03:05:54.168Z,-5.78
2018-02-15T03:08:21.799Z,-5.85
2018-02-15T03:10:49.429Z,-5.98
2018-02-15T03:13:17.628Z,-6.05
2018-02-15T03:15:45.214Z,-6.12
2018-02-15T03:18:14.572Z,-6.15
2018-02-15T03:20:43.903Z,-6.20
2018-02-15T03:23:12.002Z,-6.17
2018-02-15T03:25:39.786Z,-6.14
2018-02-15T03:28:07.421Z,-6.02
2018-02-15T03:30:34.973Z,-5.87
2018-02-15T03:33:02.600Z,-5.77
2018-02-15T03:35:30.154Z,-5.62
2018-02-15T03:38:00.095Z,-5.46
2018-02-15T03:40:27.688Z,-5.33
2018-02-15T03:42:56.096Z,-5.22
2018-02-15T03:45:23.709Z,-5.11
2018-02-15T03:47:51.294Z,-5.03
2018-02-15T03:50:18.875Z,-4.96
2018-02-15T03:52:47.880Z,-4.92
2018-02-15T03:55:18.797Z,-4.87
2018-02-15T03:57:46.416Z,-4.83
2018-02-15T04:00:14.228Z,-4.80
2018-02-15T04:02:42.025Z,-4.79
2018-02-15T04:05:09.754Z,-4.86
2018-02-15T04:07:37.960Z,-4.98
2018-02-15T04:10:05.545Z,-5.16
2018-02-15T04:12:33.134Z,-5.21
2018-02-15T04:15:00.708Z,-5.20
2018-02-15T04:17:29.494Z,-5.17
2018-02-15T04:19:57.101Z,-5.17
2018-02-15T04:22:24.720Z,-5.15
2018-02-15T04:24:52.323Z,-5.13
2018-02-15T04:27:19.912Z,-5.14
2018-02-15T04:29:47.491Z,-5.26
2018-02-15T04:32:15.478Z,-5.37
2018-02-15T04:34:43.118Z,-5.52
2018-02-15T04:37:12.750Z,-5.64
2018-02-15T04:39:40.593Z,-5.72
2018-02-15T04:42:08.274Z,-5.73
2018-02-15T04:44:35.888Z,-5.63
2018-02-15T04:47:03.456Z,-5.63
2018-02-15T04:49:32.831Z,-5.71
2018-02-15T04:52:02.265Z,-5.73
2018-02-15T04:54:29.868Z,-5.83
2018-02-15T04:56:57.552Z,-5.90
2018-02-15T04:59:25.124Z,-5.98
2018-02-15T05:01:52.712Z,-5.97
2018-02-15T05:04:21.152Z,-6.06
2018-02-15T05:06:48.926Z,-6.19
2018-02-15T05:09:17.154Z,-6.27
2018-02-15T05:11:44.876Z,-6.31
2018-02-15T05:14:12.469Z,-6.29
2018-02-15T05:16:40.083Z,-6.26
2018-02-15T05:19:08.636Z,-6.26
2018-02-15T05:21:37.192Z,-6.28
2018-02-15T05:24:04.797Z,-6.37
2018-02-15T05:26:32.371Z,-6.47
2018-02-15T05:28:59.924Z,-6.53
2018-02-15T05:31:27.545Z,-6.54
2018-02-15T05:33:55.115Z,-6.53
2018-02-15T05:36:24.420Z,-6.55
2018-02-15T05:38:52.025Z,-6.55
2018-02-15T05:41:19.881Z,-6.53
2018-02-15T05:43:47.495Z,-6.52
2018-02-15T05:46:15.429Z,-6.53
2018-02-15T05:48:43.000Z,-6.57
2018-02-15T05:51:11.156Z,-6.65
2018-02-15T05:53:38.893Z,-6.67
2018-02-15T05:56:08.428Z,-6.67
2018-02-15T05:58:36.045Z,-6.67
2018-02-15T06:01:03.616Z,-6.67
2018-02-15T06:03:33.592Z,-6.69
2018-02-15T06:06:01.235Z,-6.76
2018-02-15T06:08:28.826Z,-6.79
2018-02-15T06:10:56.399Z,-6.77
2018-02-15T06:13:24.238Z,-6.71
2018-02-15T06:15:52.029Z,-6.76
2018-02-15T06:18:19.689Z,-6.89
2018-02-15T06:20:47.326Z,-6.93
2018-02-15T06:23:14.923Z,-6.92
2018-02-15T06:25:42.500Z,-6.97
2018-02-15T06:28:10.258Z,-6.97
2018-02-15T06:30:40.724Z,-6.97
2018-02-15T06:33:09.085Z,-6.86
2018-02-15T06:35:37.061Z,-6.77
2018-02-15T06:38:04.876Z,-6.70
2018-02-15T06:40:32.477Z,-6.60
2018-02-15T06:43:00.052Z,-6.52
2018-02-15T06:45:27.639Z,-6.47
2018-02-15T06:47:55.215Z,-6.42
2018-02-15T06:50:22.840Z,-6.40
2018-02-15T06:52:50.430Z,-6.31
2018-02-15T06:55:18.324Z,-6.31
2018-02-15T06:57:45.884Z,-6.39
2018-02-15T07:00:13.481Z,-6.50
2018-02-15T07:02:41.072Z,-6.46
2018-02-15T07:05:09.063Z,-6.36
2018-02-15T07:07:39.362Z,-6.33
2018-02-15T07:10:08.088Z,-6.24
2018-02-15T07:12:37.306Z,-6.19
2018-02-15T07:15:05.201Z,-6.14
2018-02-15T07:17:33.291Z,-6.02
2018-02-15T07:20:02.977Z,-6.02
2018-02-15T07:22:33.690Z,-6.05
2018-02-15T07:25:01.434Z,-5.98
2018-02-15T07:27:29.936Z,-5.84
2018-02-15T07:29:58.085Z,-5.78
2018-02-15T07:32:25.712Z,-5.70
2018-02-15T07:34:53.305Z,-5.61
2018-02-15T07:37:23.132Z,-5.47
2018-02-15T07:39:51.618Z,-5.39
2018-02-15T07:42:22.024Z,-5.29
2018-02-15T07:44:49.645Z,-5.22
2018-02-15T07:47:17.608Z,-5.10
2018-02-15T07:49:48.501Z,-4.98
2018-02-15T07:52:16.172Z,-4.85
2018-02-15T07:54:45.905Z,-4.71
2018-02-15T07:57:13.875Z,-4.49
2018-02-15T07:59:46.922Z,-4.44
2018-02-15T08:02:14.520Z,-4.32
2018-02-15T08:04:42.120Z,-4.16
2018-02-15T08:07:09.957Z,-3.89
2018-02-15T08:09:38.105Z,-3.78
2018-02-15T08:12:05.689Z,-3.86
2018-02-15T08:14:33.271Z,-3.89
2018-02-15T08:17:00.848Z,-3.82
2018-02-15T08:19:28.668Z,-3.79
2018-02-15T08:21:56.236Z,-3.73
2018-02-15T08:24:24.679Z,-3.62
2018-02-15T08:26:52.306Z,-3.46
2018-02-15T08:29:20.101Z,-3.23
2018-02-15T08:31:47.681Z,-3.05
2018-02-15T08:34:15.330Z,-2.85
2018-02-15T08:36:42.921Z,-2.71
2018-02-15T08:39:10.980Z,-2.56
2018-02-15T08:41:38.576Z,-2.38
2018-02-15T08:44:06.191Z,-2.27
2018-02-15T08:46:33.783Z,-2.27
2018-02-15T08:49:01.379Z,-2.25
2018-02-15T08:51:31.905Z,-2.25
2018-02-15T08:53:59.505Z,-2.01
2018-02-15T08:56:48.210Z,-1.81
2018-02-15T08:59:17.102Z,-1.75
2018-02-15T09:01:44.685Z,-1.49
2018-02-15T09:04:12.700Z,-1.57
2018-02-15T09:06:40.312Z,-1.51
2018-02-15T09:09:08.010Z,-1.19
2018-02-15T09:11:36.990Z,-1.21
2018-02-15T09:14:04.588Z,-1.18
2018-02-15T09:16:32.149Z,-0.97
2018-02-15T09:18:59.739Z,-0.79
2018-02-15T09:21:27.311Z,-0.52
2018-02-15T09:23:54.866Z,-0.45
2018-02-15T09:26:22.567Z,-0.14
2018-02-15T09:28:50.163Z,-0.12
2018-02-15T09:31:18.164Z,0.13
2018-02-15T09:33:45.733Z,0.36
2018-02-15T09:36:13.341Z,0.33
2018-02-15T09:38:40.882Z,0.50
2018-02-15T09:41:08.634Z,0.91
2018-02-15T09:43:37.786Z,0.97
2018-02-15T09:46:05.421Z,1.05
2018-02-15T09:48:32.989Z,1.17
2018-02-15T09:51:00.544Z,1.33
2018-02-15T09:53:29.469Z,1.14
2018-02-15T09:55:57.062Z,1.12
2018-02-15T09:58:24.956Z,1.11
2018-02-15T10:00:52.513Z,1.19
2018-02-15T10:03:20.594Z,1.37
2018-02-15T10:05:48.181Z,1.26
2018-02-15T10:08:15.985Z,1.52
2018-02-15T10:10:43.573Z,1.62
2018-02-15T10:13:12.206Z,1.63
2018-02-15T10:15:39.824Z,1.36
2018-02-15T10:18:07.458Z,1.52
2018-02-15T10:20:35.019Z,1.44
2018-02-15T10:23:02.615Z,1.76
2018-02-15T10:25:30.273Z,1.77
2018-02-15T10:27:57.917Z,1.75
2018-02-15T10:30:25.524Z,1.47
2018-02-15T10:32:53.082Z,1.42
2018-02-15T10:35:21.184Z,1.34
2018-02-15T10:37:48.812Z,1.62
2018-02-15T10:40:16.379Z,1.51
2018-02-15T10:42:43.942Z,1.79
2018-02-15T10:45:12.040Z,1.72
2018-02-15T10:47:39.620Z,1.38
2018-02-15T10:50:07.218Z,1.58
2018-02-15T10:52:37.892Z,2.02
2018-02-15T10:55:09.555Z,2.37
2018-02-15T10:57:37.217Z,2.71
2018-02-15T11:00:05.117Z,2.82
2018-02-15T11:02:35.175Z,2.49
2018-02-15T11:05:09.133Z,2.41
2018-02-15T11:07:44.139Z,2.04
2018-02-15T11:10:11.873Z,2.03
2018-02-15T11:12:41.482Z,2.26
2018-02-15T11:15:09.350Z,2.34
2018-02-15T11:17:38.778Z,2.42
2018-02-15T11:20:08.145Z,2.34
2018-02-15T11:22:35.749Z,2.44
2018-02-15T11:25:06.755Z,2.26
2018-02-15T11:27:35.256Z,2.30
2018-02-15T11:30:02.864Z,2.56
2018-02-15T11:32:30.466Z,2.73
2018-02-15T11:34:58.076Z,2.61
2018-02-15T11:37:26.959Z,2.85
2018-02-15T11:39:54.864Z,2.78
2018-02-15T11:42:22.458Z,2.77
2018-02-15T11:44:51.291Z,2.94
2018-02-15T11:47:22.281Z,3.24
2018-02-15T11:49:52.615Z,3.28
2018-02-15T11:52:20.252Z,3.25
2018-02-15T11:54:47.842Z,3.36
2018-02-15T11:57:15.941Z,3.57
2018-02-15T11:59:44.974Z,3.21
2018-02-15T12:02:12.770Z,3.21
2018-02-15T12:04:40.364Z,2.98
2018-02-15T12:07:08.331Z,2.86
2018-02-15T12:09:35.961Z,3.13
2018-02-15T12:12:03.507Z,3.50
2018-02-15T12:14:31.099Z,3.64
2018-02-15T12:16:58.677Z,3.90
2018-02-15T12:19:26.237Z,4.67
2018-02-15T12:21:53.809Z,5.25
2018-02-15T12:24:21.462Z,5.85
2018-02-15T12:26:49.172Z,5.71
2018-02-15T12:29:17.577Z,5.47
2018-02-15T12:31:45.363Z,5.77
2018-02-15T12:34:12.916Z,6.18
2018-02-15T12:36:40.483Z,6.03
2018-02-15T12:39:08.271Z,5.73
2018-02-15T12:41:35.842Z,5.92
2018-02-15T12:44:03.478Z,6.38
2018-02-15T12:46:31.056Z,6.49
2018-02-15T12:48:58.699Z,6.76
2018-02-15T12:51:27.297Z,7.18
2018-02-15T12:53:54.870Z,7.13
2018-02-15T12:59:14.767Z,6.34
2018-02-15T13:01:42.736Z,6.76
2018-02-15T13:04:11.023Z,6.56
2018-02-15T13:06:38.640Z,6.82
2018-02-15T13:09:06.647Z,6.65
2018-02-15T13:11:34.300Z,6.54
2018-02-15T13:14:01.887Z,6.48
2018-02-15T13:16:42.212Z,6.50
2018-02-15T13:22:24.240Z,6.82
2018-02-15T13:24:51.779Z,6.87
2018-02-15T13:27:19.678Z,6.42
2018-02-15T13:29:47.606Z,6.47
2018-02-15T13:32:15.242Z,6.23
2018-02-15T13:34:42.752Z,5.91
2018-02-15T13:37:10.764Z,5.23
2018-02-15T13:39:38.345Z,5.19
2018-02-15T13:42:05.944Z,5.16
2018-02-15T13:44:33.518Z,5.45
2018-02-15T13:47:01.099Z,5.62
2018-02-15T13:49:28.669Z,5.30
2018-02-15T13:51:56.246Z,5.75
2018-02-15T13:54:24.326Z,5.75
2018-02-15T13:56:51.905Z,5.48
2018-02-15T13:59:19.456Z,5.18
2018-02-15T14:01:47.056Z,5.19
2018-02-15T14:04:14.615Z,4.94
2018-02-15T14:06:42.225Z,4.68
2018-02-15T14:09:10.600Z,4.39
2018-02-15T14:11:38.329Z,4.37
2018-02-15T14:14:05.912Z,4.70
2018-02-15T14:16:33.501Z,4.79
2018-02-15T14:19:01.093Z,4.67
2018-02-15T14:21:29.262Z,4.63
2018-02-15T14:23:56.838Z,4.62
2018-02-15T14:26:25.348Z,4.51
2018-02-15T14:28:53.001Z,4.61
2018-02-15T14:31:20.597Z,4.68
2018-02-15T14:33:48.316Z,4.87
2018-02-15T14:36:16.214Z,4.69
2018-02-15T14:38:43.910Z,4.80
2018-02-15T14:41:11.560Z,4.83
2018-02-15T14:43:39.504Z,4.63
2018-02-15T14:46:07.103Z,4.66
2018-02-15T14:48:34.684Z,4.49
2018-02-15T14:51:02.267Z,4.11
2018-02-15T14:53:30.730Z,4.00
2018-02-15T14:55:58.477Z,3.86
2018-02-15T14:58:26.112Z,3.78
2018-02-15T15:00:53.664Z,3.77
2018-02-15T15:03:21.257Z,3.67
2018-02-15T15:05:48.981Z,3.31
2018-02-15T15:08:16.549Z,3.18
2018-02-15T15:10:44.132Z,3.11
2018-02-15T15:13:11.748Z,3.19
2018-02-15T15:15:39.305Z,3.13
2018-02-15T15:18:09.128Z,3.13
2018-02-15T15:20:36.729Z,3.16
2018-02-15T15:23:05.039Z,3.21
2018-02-15T15:25:32.614Z,3.23
2018-02-15T15:28:07.860Z,3.25
2018-02-15T15:30:35.685Z,3.30
2018-02-15T15:33:03.298Z,3.22
2018-02-15T15:35:30.900Z,2.89
2018-02-15T15:37:59.381Z,2.66
2018-02-15T15:40:27.015Z,2.68
2018-02-15T15:42:54.791Z,2.50
2018-02-15T15:45:22.651Z,2.57
2018-02-15T15:47:50.240Z,2.59
2018-02-15T15:50:17.831Z,2.64
2018-02-15T15:52:47.047Z,2.55
2018-02-15T15:55:15.001Z,2.45
2018-02-15T15:57:44.893Z,2.29
2018-02-15T16:00:12.548Z,2.22
2018-02-15T16:02:40.142Z,2.20
2018-02-15T16:05:08.142Z,2.00
2018-02-15T16:07:35.758Z,1.79
2018-02-15T16:10:03.314Z,1.61
2018-02-15T16:12:31.635Z,1.54
2018-02-15T16:14:59.210Z,1.45
2018-02-15T16:17:27.503Z,1.33
2018-02-15T16:19:55.216Z,1.12
2018-02-15T16:22:22.958Z,1.01
2018-02-15T16:24:50.537Z,0.96
2018-02-15T16:27:18.750Z,0.94
2018-02-15T16:29:46.437Z,0.87
2018-02-15T16:32:14.029Z,0.75
2018-02-15T16:34:41.616Z,0.66
2018-02-15T16:37:09.781Z,0.63
2018-02-15T16:39:37.362Z,0.66
2018-02-15T16:42:04.990Z,0.67
2018-02-15T16:44:32.536Z,0.66
2018-02-15T16:47:00.104Z,0.68
2018-02-15T16:49:28.062Z,0.61
2018-02-15T16:51:55.768Z,0.60
2018-02-15T16:54:23.313Z,0.55
2018-02-15T16:56:50.997Z,0.51
2018-02-15T16:59:18.574Z,0.54
2018-02-15T17:01:46.153Z,0.52
2018-02-15T17:04:13.749Z,0.51
2018-02-15T17:06:41.315Z,0.50
2018-02-15T17:09:08.992Z,0.49
2018-02-15T17:11:36.595Z,0.44
2018-02-15T17:14:04.178Z,0.41
2018-02-15T17:16:31.775Z,0.38
2018-02-15T17:18:59.337Z,0.24
2018-02-15T17:21:26.902Z,0.15
2018-02-15T17:23:54.531Z,0.14
2018-02-15T17:26:22.202Z,0.12
2018-02-15T17:28:49.810Z,0.08
2018-02-15T17:31:17.529Z,0.08
2018-02-15T17:33:45.098Z,0.07
2018-02-15T17:36:12.701Z,0.08
2018-02-15T17:38:40.307Z,0.03
2018-02-15T17:41:08.147Z,0.06
2018-02-15T17:43:35.717Z,0.10
2018-02-15T17:46:03.321Z,0.13
2018-02-15T17:48:30.924Z,0.14
2018-02-15T17:50:58.525Z,0.12
2018-02-15T17:53:26.377Z,0.15
2018-02-15T17:55:53.935Z,0.20
2018-02-15T17:58:22.565Z,0.29
2018-02-15T18:00:50.207Z,0.32
2018-02-15T18:03:18.318Z,0.37
2018-02-15T18:05:46.021Z,0.36
2018-02-15T18:08:13.610Z,0.29
2018-02-15T18:10:41.212Z,0.22
2018-02-15T18:13:09.200Z,0.18
2018-02-15T18:15:37.093Z,0.15
2018-02-15T18:18:05.964Z,0.21
2018-02-15T18:20:33.541Z,0.19
2018-02-15T18:23:01.170Z,0.18
2018-02-15T18:25:28.753Z,0.18
2018-02-15T18:27:56.630Z,0.17
2018-02-15T18:30:24.210Z,0.15
2018-02-15T18:32:51.813Z,0.20
2018-02-15T18:35:19.575Z,0.12
2018-02-15T18:37:47.189Z,0.08
2018-02-15T18:40:15.182Z,0.06
2018-02-15T18:42:42.756Z,0.04
2018-02-15T18:45:10.993Z,0.12
2018-02-15T18:47:38.689Z,0.15
2018-02-15T18:50:06.290Z,0.15
2018-02-15T18:52:34.110Z,0.15
2018-02-15T18:55:01.991Z,0.14
2018-02-15T18:57:30.055Z,0.10
2018-02-15T18:59:57.736Z,0.13
2018-02-15T19:02:29.586Z,0.13
2018-02-15T19:05:07.213Z,0.04
2018-02-15T19:07:34.984Z,0.02
2018-02-15T19:10:02.606Z,0.06
2018-02-15T19:12:30.354Z,0.08
2018-02-15T19:15:00.020Z,0.05
2018-02-15T19:17:27.790Z,0.08
2018-02-15T19:19:55.402Z,0.08
2018-02-15T19:22:24.212Z,0.13
2018-02-15T19:24:52.024Z,0.21
2018-02-15T19:27:20.328Z,0.39
2018-02-15T19:29:48.407Z,0.48
2018-02-15T19:32:15.987Z,0.55
2018-02-15T19:34:44.942Z,0.41
2018-02-15T19:37:13.026Z,0.42
2018-02-15T19:39:42.492Z,0.41
2018-02-15T19:42:12.687Z,0.42
2018-02-15T19:44:40.249Z,0.36
2018-02-15T19:47:09.125Z,0.22
2018-02-15T19:49:36.882Z,0.13
2018-02-15T19:52:05.994Z,0.09
2018-02-15T19:54:35.799Z,0.02
2018-02-15T19:57:10.842Z,-0.02
2018-02-15T19:59:38.753Z,0.00
2018-02-15T20:02:06.356Z,0.09
2018-02-15T20:04:33.941Z,0.15
2018-02-15T20:07:01.561Z,0.28
2018-02-15T20:09:30.600Z,0.38
2018-02-15T20:11:58.221Z,0.43
2018-02-15T20:14:26.031Z,0.43
2018-02-15T20:16:53.664Z,0.34
2018-02-15T20:19:21.814Z,0.26
2018-02-15T20:21:49.619Z,0.18
2018-02-15T20:24:17.215Z,0.17
2018-02-15T20:26:50.388Z,0.23
2018-02-15T20:29:17.981Z,0.26
2018-02-15T20:31:45.547Z,0.31
2018-02-15T20:34:13.137Z,0.26
2018-02-15T20:36:40.755Z,0.25
2018-02-15T20:39:13.840Z,0.20
2018-02-15T20:41:41.422Z,0.11
2018-02-15T20:44:09.058Z,0.04
2018-02-15T20:46:36.709Z,0.07
2018-02-15T20:49:04.390Z,0.13
2018-02-15T20:51:37.737Z,0.14
2018-02-15T20:54:10.949Z,-0.08
2018-02-15T20:56:38.526Z,0.17
2018-02-15T20:59:06.105Z,0.27
2018-02-15T21:01:33.798Z,0.44
2018-02-15T21:04:01.400Z,0.45
2018-02-15T21:06:29.325Z,0.38
2018-02-15T21:08:56.897Z,0.45
2018-02-15T21:11:24.501Z,0.51
2018-02-15T21:13:52.083Z,0.56
2018-02-15T21:16:19.662Z,0.59
2018-02-15T21:18:47.245Z,0.63
2018-02-15T21:21:14.861Z,0.57
2018-02-15T21:23:42.458Z,0.53
2018-02-15T21:26:10.088Z,0.45
2018-02-15T21:28:37.714Z,0.49
2018-02-15T21:31:05.457Z,0.60
2018-02-15T21:33:33.119Z,0.48
2018-02-15T21:36:00.725Z,0.28
2018-02-15T21:38:28.348Z,0.11
2018-02-15T21:40:56.012Z,0.02
2018-02-15T21:43:23.784Z,-0.11
2018-02-15T21:45:51.418Z,-0.18
2018-02-15T21:48:18.997Z,-0.23
2018-02-15T21:50:46.914Z,-0.18
2018-02-15T21:53:14.555Z,-0.09
2018-02-15T21:55:42.225Z,-0.07
2018-02-15T21:58:09.804Z,-0.11
2018-02-15T22:00:37.372Z,-0.22
2018-02-15T22:03:05.255Z,-0.29
2018-02-15T22:05:32.840Z,-0.25
2018-02-15T22:08:00.744Z,-0.21
2018-02-15T22:10:28.401Z,-0.18
2018-02-15T22:12:56.044Z,-0.16
2018-02-15T22:15:25.120Z,-0.06
2018-02-15T22:17:52.733Z,0.10
2018-02-15T22:20:20.325Z,0.16
2018-02-15T22:22:47.940Z,0.19
2018-02-15T22:25:15.571Z,0.27
2018-02-15T22:27:43.148Z,0.28
2018-02-15T22:30:10.797Z,0.27
2018-02-15T22:32:38.398Z,0.20
2018-02-15T22:35:06.345Z,0.15
2018-02-15T22:37:33.949Z,0.16
2018-02-15T22:40:01.575Z,0.15
2018-02-15T22:42:29.153Z,0.04
2018-02-15T22:44:56.748Z,-0.06
2018-02-15T22:47:24.351Z,0.09
2018-02-15T22:49:51.949Z,0.00
2018-02-15T22:52:19.519Z,-0.08
2018-02-15T22:54:47.273Z,-0.03
2018-02-15T22:57:14.889Z,0.13
2018-02-15T22:59:42.785Z,0.19
2018-02-15T23:02:10.368Z,0.16
2018-02-15T23:04:40.631Z,0.08
2018-02-15T23:07:09.175Z,0.17
2018-02-15T23:09:36.832Z,0.31
2018-02-15T23:12:04.461Z,0.43
2018-02-15T23:14:33.128Z,0.55
2018-02-15T23:17:00.763Z,0.49
2018-02-15T23:19:28.389Z,0.26
2018-02-15T23:21:56.230Z,0.23
2018-02-15T23:24:26.896Z,0.33
2018-02-15T23:26:54.457Z,0.53
2018-02-15T23:29:22.317Z,0.64
2018-02-15T23:31:49.968Z,0.65
2018-02-15T23:34:17.584Z,0.61
2018-02-15T23:36:45.172Z,0.53
2018-02-15T23:39:14.679Z,0.24
2018-02-15T23:41:42.285Z,0.18
2018-02-15T23:44:10.325Z,0.27
2018-02-15T23:46:38.003Z,0.35
2018-02-15T23:49:06.988Z,0.53
2018-02-15T23:51:36.604Z,0.52
2018-02-15T23:54:04.652Z,0.53
2018-02-15T23:56:32.250Z,0.45
2018-02-15T23:58:59.864Z,0.44
